sensor_id;sensor_type;location;lat;lon;timestamp;P1;durP1;ratioP1;P2;durP2;ratioP2
17658;SDS011;8948;51.534;8.262;2022-12-07T00:00:34;87.73;;;41.07;;
17658;SDS011;8948;51.534;8.262;2022-12-07T00:05:34;94.50;;;42.67;;
17658;SDS011;8948;51.534;8.262;2022-12-07T00:10:35;91.80;;;42.93;;
17658;SDS011;8948;51.534;8.262;2022-12-07T00:15:35;90.53;;;41.07;;
17658;SDS011;8948;51.534;8.262;2022-12-07T00:20:36;94.00;;;43.43;;
17658;SDS011;8948;51.534;8.262;2022-12-07T00:25:37;86.83;;;41.20;;
17658;SDS011;8948;51.534;8.262;2022-12-07T00:30:37;96.63;;;43.07;;
17658;SDS011;8948;51.534;8.262;2022-12-07T00:35:38;91.57;;;43.90;;
17658;SDS011;8948;51.534;8.262;2022-12-07T00:40:39;102.90;;;45.77;;
17658;SDS011;8948;51.534;8.262;2022-12-07T00:45:43;98.13;;;46.90;;
17658;SDS011;8948;51.534;8.262;2022-12-07T00:50:44;90.60;;;48.00;;
17658;SDS011;8948;51.534;8.262;2022-12-07T00:55:45;78.97;;;41.50;;
17658;SDS011;8948;51.534;8.262;2022-12-07T01:00:46;79.07;;;40.70;;
17658;SDS011;8948;51.534;8.262;2022-12-07T01:05:50;69.57;;;38.07;;
17658;SDS011;8948;51.534;8.262;2022-12-07T01:10:58;65.63;;;37.77;;
17658;SDS011;8948;51.534;8.262;2022-12-07T01:16:02;61.30;;;33.80;;
17658;SDS011;8948;51.534;8.262;2022-12-07T01:26:21;47.33;;;27.33;;
17658;SDS011;8948;51.534;8.262;2022-12-07T01:31:24;56.57;;;31.17;;
17658;SDS011;8948;51.534;8.262;2022-12-07T01:36:27;54.83;;;29.30;;
17658;SDS011;8948;51.534;8.262;2022-12-07T01:41:34;52.60;;;31.23;;
17658;SDS011;8948;51.534;8.262;2022-12-07T01:46:39;54.10;;;30.33;;
17658;SDS011;8948;51.534;8.262;2022-12-07T01:51:41;54.33;;;30.80;;
17658;SDS011;8948;51.534;8.262;2022-12-07T01:56:47;61.10;;;32.70;;
17658;SDS011;8948;51.534;8.262;2022-12-07T02:01:52;62.67;;;34.23;;
17658;SDS011;8948;51.534;8.262;2022-12-07T02:06:54;66.77;;;33.93;;
17658;SDS011;8948;51.534;8.262;2022-12-07T02:11:55;66.47;;;35.17;;
17658;SDS011;8948;51.534;8.262;2022-12-07T02:37:53;82.57;;;38.80;;
17658;SDS011;8948;51.534;8.262;2022-12-07T02:43:01;79.53;;;36.90;;
17658;SDS011;8948;51.534;8.262;2022-12-07T02:48:28;74.93;;;35.40;;
17658;SDS011;8948;51.534;8.262;2022-12-07T02:53:33;67.30;;;34.43;;
17658;SDS011;8948;51.534;8.262;2022-12-07T03:14:47;74.97;;;37.33;;
17658;SDS011;8948;51.534;8.262;2022-12-07T03:19:57;69.40;;;36.63;;
17658;SDS011;8948;51.534;8.262;2022-12-07T03:25:04;76.57;;;35.90;;
17658;SDS011;8948;51.534;8.262;2022-12-07T03:30:08;57.10;;;31.53;;
17658;SDS011;8948;51.534;8.262;2022-12-07T03:35:16;65.23;;;31.93;;
17658;SDS011;8948;51.534;8.262;2022-12-07T03:40:28;66.73;;;33.00;;
17658;SDS011;8948;51.534;8.262;2022-12-07T03:45:41;68.70;;;34.40;;
17658;SDS011;8948;51.534;8.262;2022-12-07T03:50:44;60.17;;;32.23;;
17658;SDS011;8948;51.534;8.262;2022-12-07T03:55:52;65.10;;;33.07;;
17658;SDS011;8948;51.534;8.262;2022-12-07T04:00:54;61.37;;;32.33;;
17658;SDS011;8948;51.534;8.262;2022-12-07T04:05:55;57.37;;;29.57;;
17658;SDS011;8948;51.534;8.262;2022-12-07T04:10:57;64.30;;;32.27;;
17658;SDS011;8948;51.534;8.262;2022-12-07T04:15:58;56.67;;;30.10;;
17658;SDS011;8948;51.534;8.262;2022-12-07T04:20:58;53.77;;;29.33;;
17658;SDS011;8948;51.534;8.262;2022-12-07T04:25:59;51.93;;;27.70;;
17658;SDS011;8948;51.534;8.262;2022-12-07T04:31:00;58.47;;;30.30;;
17658;SDS011;8948;51.534;8.262;2022-12-07T04:36:00;58.63;;;29.77;;
17658;SDS011;8948;51.534;8.262;2022-12-07T04:41:07;57.47;;;29.20;;
17658;SDS011;8948;51.534;8.262;2022-12-07T04:46:08;50.73;;;27.60;;
17658;SDS011;8948;51.534;8.262;2022-12-07T04:51:09;58.63;;;28.90;;
17658;SDS011;8948;51.534;8.262;2022-12-07T04:56:09;49.47;;;26.40;;
17658;SDS011;8948;51.534;8.262;2022-12-07T05:01:10;52.00;;;25.00;;
17658;SDS011;8948;51.534;8.262;2022-12-07T05:06:11;44.50;;;24.57;;
17658;SDS011;8948;51.534;8.262;2022-12-07T05:11:12;49.73;;;24.77;;
17658;SDS011;8948;51.534;8.262;2022-12-07T05:16:34;50.00;;;24.80;;
17658;SDS011;8948;51.534;8.262;2022-12-07T05:21:35;57.97;;;26.23;;
17658;SDS011;8948;51.534;8.262;2022-12-07T05:26:36;50.30;;;27.00;;
17658;SDS011;8948;51.534;8.262;2022-12-07T05:31:37;43.17;;;24.87;;
17658;SDS011;8948;51.534;8.262;2022-12-07T05:36:37;43.63;;;24.90;;
17658;SDS011;8948;51.534;8.262;2022-12-07T05:41:38;36.80;;;19.93;;
17658;SDS011;8948;51.534;8.262;2022-12-07T05:46:57;34.40;;;18.97;;
17658;SDS011;8948;51.534;8.262;2022-12-07T05:51:58;37.53;;;19.60;;
17658;SDS011;8948;51.534;8.262;2022-12-07T05:57:00;38.60;;;17.73;;
17658;SDS011;8948;51.534;8.262;2022-12-07T06:02:02;38.60;;;20.47;;
17658;SDS011;8948;51.534;8.262;2022-12-07T06:07:04;37.77;;;18.23;;
17658;SDS011;8948;51.534;8.262;2022-12-07T06:12:05;38.90;;;17.97;;
17658;SDS011;8948;51.534;8.262;2022-12-07T06:17:24;36.10;;;17.83;;
17658;SDS011;8948;51.534;8.262;2022-12-07T06:22:25;36.53;;;17.43;;
17658;SDS011;8948;51.534;8.262;2022-12-07T06:27:26;34.40;;;17.27;;
17658;SDS011;8948;51.534;8.262;2022-12-07T06:32:26;33.63;;;15.13;;
17658;SDS011;8948;51.534;8.262;2022-12-07T06:37:27;28.43;;;15.47;;
17658;SDS011;8948;51.534;8.262;2022-12-07T06:42:27;34.13;;;17.00;;
17658;SDS011;8948;51.534;8.262;2022-12-07T06:47:28;36.40;;;16.27;;
17658;SDS011;8948;51.534;8.262;2022-12-07T06:52:29;29.70;;;16.43;;
17658;SDS011;8948;51.534;8.262;2022-12-07T06:57:30;29.93;;;15.17;;
17658;SDS011;8948;51.534;8.262;2022-12-07T07:02:31;37.90;;;16.40;;
17658;SDS011;8948;51.534;8.262;2022-12-07T07:07:31;30.80;;;13.13;;
17658;SDS011;8948;51.534;8.262;2022-12-07T07:12:32;31.23;;;15.00;;
17658;SDS011;8948;51.534;8.262;2022-12-07T07:17:32;30.37;;;14.43;;
17658;SDS011;8948;51.534;8.262;2022-12-07T07:22:33;28.97;;;15.27;;
17658;SDS011;8948;51.534;8.262;2022-12-07T07:27:34;32.43;;;13.33;;
17658;SDS011;8948;51.534;8.262;2022-12-07T07:32:34;31.40;;;13.17;;
17658;SDS011;8948;51.534;8.262;2022-12-07T07:37:35;27.07;;;12.93;;
17658;SDS011;8948;51.534;8.262;2022-12-07T07:42:35;29.33;;;12.23;;
17658;SDS011;8948;51.534;8.262;2022-12-07T07:47:36;26.17;;;13.17;;
17658;SDS011;8948;51.534;8.262;2022-12-07T07:52:36;27.33;;;11.00;;
17658;SDS011;8948;51.534;8.262;2022-12-07T07:57:38;21.10;;;10.20;;
17658;SDS011;8948;51.534;8.262;2022-12-07T08:02:39;27.50;;;11.57;;
17658;SDS011;8948;51.534;8.262;2022-12-07T08:07:42;28.17;;;11.60;;
17658;SDS011;8948;51.534;8.262;2022-12-07T08:12:43;25.73;;;12.43;;
17658;SDS011;8948;51.534;8.262;2022-12-07T08:18:02;18.40;;;10.07;;
17658;SDS011;8948;51.534;8.262;2022-12-07T08:23:03;20.20;;;10.33;;
17658;SDS011;8948;51.534;8.262;2022-12-07T08:28:04;21.77;;;10.70;;
17658;SDS011;8948;51.534;8.262;2022-12-07T08:33:05;15.23;;;9.33;;
17658;SDS011;8948;51.534;8.262;2022-12-07T08:38:05;18.57;;;9.37;;
17658;SDS011;8948;51.534;8.262;2022-12-07T08:43:06;18.90;;;9.03;;
17658;SDS011;8948;51.534;8.262;2022-12-07T08:48:08;23.53;;;8.70;;
17658;SDS011;8948;51.534;8.262;2022-12-07T08:53:10;19.97;;;8.77;;
17658;SDS011;8948;51.534;8.262;2022-12-07T08:58:10;20.33;;;8.43;;
17658;SDS011;8948;51.534;8.262;2022-12-07T09:03:11;23.50;;;9.00;;
17658;SDS011;8948;51.534;8.262;2022-12-07T09:08:12;17.30;;;9.00;;
17658;SDS011;8948;51.534;8.262;2022-12-07T09:13:13;23.67;;;9.80;;
17658;SDS011;8948;51.534;8.262;2022-12-07T09:18:13;18.20;;;8.93;;
17658;SDS011;8948;51.534;8.262;2022-12-07T09:23:14;16.93;;;8.80;;
17658;SDS011;8948;51.534;8.262;2022-12-07T09:28:15;25.63;;;8.53;;
17658;SDS011;8948;51.534;8.262;2022-12-07T09:33:15;18.37;;;8.43;;
17658;SDS011;8948;51.534;8.262;2022-12-07T09:38:16;32.13;;;8.77;;
17658;SDS011;8948;51.534;8.262;2022-12-07T09:43:19;17.53;;;7.97;;
17658;SDS011;8948;51.534;8.262;2022-12-07T09:48:22;22.23;;;7.50;;
17658;SDS011;8948;51.534;8.262;2022-12-07T09:53:34;24.73;;;8.67;;
17658;SDS011;8948;51.534;8.262;2022-12-07T09:58:38;18.53;;;7.70;;
17658;SDS011;8948;51.534;8.262;2022-12-07T10:03:39;20.40;;;7.10;;
17658;SDS011;8948;51.534;8.262;2022-12-07T10:08:42;21.53;;;7.60;;
17658;SDS011;8948;51.534;8.262;2022-12-07T10:13:44;20.93;;;6.93;;
17658;SDS011;8948;51.534;8.262;2022-12-07T10:18:51;19.33;;;7.17;;
17658;SDS011;8948;51.534;8.262;2022-12-07T10:29:14;22.63;;;7.17;;
17658;SDS011;8948;51.534;8.262;2022-12-07T10:39:24;14.70;;;6.13;;
17658;SDS011;8948;51.534;8.262;2022-12-07T10:44:28;16.50;;;6.30;;
17658;SDS011;8948;51.534;8.262;2022-12-07T10:56:10;15.10;;;5.20;;
17658;SDS011;8948;51.534;8.262;2022-12-07T11:00:59;18.90;;;5.80;;
17658;SDS011;8948;51.534;8.262;2022-12-07T11:27:33;17.13;;;5.93;;
17658;SDS011;8948;51.534;8.262;2022-12-07T11:32:45;18.90;;;6.30;;
17658;SDS011;8948;51.534;8.262;2022-12-07T11:48:22;23.73;;;7.27;;
17658;SDS011;8948;51.534;8.262;2022-12-07T12:03:48;17.27;;;9.13;;
17658;SDS011;8948;51.534;8.262;2022-12-07T12:24:33;17.53;;;9.97;;
17658;SDS011;8948;51.534;8.262;2022-12-07T12:29:38;24.03;;;11.40;;
17658;SDS011;8948;51.534;8.262;2022-12-07T12:45:31;20.63;;;10.53;;
17658;SDS011;8948;51.534;8.262;2022-12-07T12:50:36;28.83;;;11.97;;
17658;SDS011;8948;51.534;8.262;2022-12-07T13:00:41;30.07;;;11.67;;
17658;SDS011;8948;51.534;8.262;2022-12-07T13:05:41;22.47;;;9.20;;
17658;SDS011;8948;51.534;8.262;2022-12-07T13:10:43;22.80;;;10.20;;
17658;SDS011;8948;51.534;8.262;2022-12-07T13:36:16;20.63;;;7.07;;
17658;SDS011;8948;51.534;8.262;2022-12-07T13:41:24;22.17;;;8.20;;
17658;SDS011;8948;51.534;8.262;2022-12-07T13:46:32;21.37;;;8.50;;
17658;SDS011;8948;51.534;8.262;2022-12-07T13:51:42;20.50;;;8.13;;
17658;SDS011;8948;51.534;8.262;2022-12-07T13:56:43;17.83;;;6.87;;
17658;SDS011;8948;51.534;8.262;2022-12-07T14:01:47;23.13;;;7.30;;
17658;SDS011;8948;51.534;8.262;2022-12-07T14:06:52;11.40;;;6.17;;
17658;SDS011;8948;51.534;8.262;2022-12-07T14:11:53;9.87;;;5.47;;
17658;SDS011;8948;51.534;8.262;2022-12-07T14:17:00;22.97;;;6.23;;
17658;SDS011;8948;51.534;8.262;2022-12-07T14:22:18;11.47;;;5.57;;
17658;SDS011;8948;51.534;8.262;2022-12-07T14:32:58;20.13;;;5.70;;
17658;SDS011;8948;51.534;8.262;2022-12-07T14:38:03;17.70;;;5.60;;
17658;SDS011;8948;51.534;8.262;2022-12-07T14:43:13;16.53;;;6.77;;
17658;SDS011;8948;51.534;8.262;2022-12-07T14:48:15;17.97;;;7.43;;
17658;SDS011;8948;51.534;8.262;2022-12-07T14:53:17;21.83;;;8.03;;
17658;SDS011;8948;51.534;8.262;2022-12-07T14:58:21;14.10;;;6.20;;
17658;SDS011;8948;51.534;8.262;2022-12-07T15:03:22;16.67;;;6.50;;
17658;SDS011;8948;51.534;8.262;2022-12-07T15:08:23;18.20;;;6.17;;
17658;SDS011;8948;51.534;8.262;2022-12-07T15:13:24;18.07;;;6.07;;
17658;SDS011;8948;51.534;8.262;2022-12-07T15:18:43;16.47;;;6.03;;
17658;SDS011;8948;51.534;8.262;2022-12-07T15:23:45;17.73;;;5.67;;
17658;SDS011;8948;51.534;8.262;2022-12-07T15:28:46;16.20;;;4.80;;
17658;SDS011;8948;51.534;8.262;2022-12-07T15:33:47;15.60;;;5.57;;
17658;SDS011;8948;51.534;8.262;2022-12-07T15:38:48;13.10;;;5.07;;
17658;SDS011;8948;51.534;8.262;2022-12-07T15:43:49;12.17;;;5.23;;
17658;SDS011;8948;51.534;8.262;2022-12-07T15:49:10;20.90;;;6.13;;
17658;SDS011;8948;51.534;8.262;2022-12-07T15:54:16;14.60;;;6.00;;
17658;SDS011;8948;51.534;8.262;2022-12-07T15:59:23;19.07;;;6.80;;
17658;SDS011;8948;51.534;8.262;2022-12-07T16:04:27;14.63;;;5.10;;
17658;SDS011;8948;51.534;8.262;2022-12-07T16:09:29;17.43;;;6.30;;
17658;SDS011;8948;51.534;8.262;2022-12-07T16:14:29;14.03;;;5.30;;
17658;SDS011;8948;51.534;8.262;2022-12-07T16:19:33;17.77;;;5.60;;
17658;SDS011;8948;51.534;8.262;2022-12-07T16:29:41;15.30;;;5.03;;
17658;SDS011;8948;51.534;8.262;2022-12-07T16:34:42;17.37;;;7.13;;
17658;SDS011;8948;51.534;8.262;2022-12-07T16:39:43;22.80;;;6.57;;
17658;SDS011;8948;51.534;8.262;2022-12-07T16:44:43;14.57;;;6.93;;
17658;SDS011;8948;51.534;8.262;2022-12-07T16:49:44;14.87;;;7.63;;
17658;SDS011;8948;51.534;8.262;2022-12-07T16:54:45;18.07;;;8.20;;
17658;SDS011;8948;51.534;8.262;2022-12-07T16:59:45;23.57;;;9.27;;
17658;SDS011;8948;51.534;8.262;2022-12-07T17:04:46;23.30;;;9.97;;
17658;SDS011;8948;51.534;8.262;2022-12-07T17:09:47;20.37;;;10.40;;
17658;SDS011;8948;51.534;8.262;2022-12-07T17:14:47;19.03;;;10.73;;
17658;SDS011;8948;51.534;8.262;2022-12-07T17:20:06;33.10;;;11.00;;
17658;SDS011;8948;51.534;8.262;2022-12-07T17:25:07;25.00;;;13.50;;
17658;SDS011;8948;51.534;8.262;2022-12-07T17:30:09;24.90;;;14.97;;
17658;SDS011;8948;51.534;8.262;2022-12-07T17:35:11;29.73;;;15.07;;
17658;SDS011;8948;51.534;8.262;2022-12-07T17:40:11;31.37;;;15.50;;
17658;SDS011;8948;51.534;8.262;2022-12-07T17:45:12;30.10;;;16.27;;
17658;SDS011;8948;51.534;8.262;2022-12-07T17:50:13;30.03;;;15.00;;
17658;SDS011;8948;51.534;8.262;2022-12-07T17:55:13;35.77;;;17.63;;
17658;SDS011;8948;51.534;8.262;2022-12-07T18:00:14;29.37;;;16.53;;
17658;SDS011;8948;51.534;8.262;2022-12-07T18:05:15;30.90;;;16.43;;
17658;SDS011;8948;51.534;8.262;2022-12-07T18:10:16;28.83;;;14.93;;
17658;SDS011;8948;51.534;8.262;2022-12-07T18:15:16;30.57;;;15.73;;
17658;SDS011;8948;51.534;8.262;2022-12-07T18:20:17;26.93;;;12.93;;
17658;SDS011;8948;51.534;8.262;2022-12-07T18:25:17;30.80;;;12.47;;
17658;SDS011;8948;51.534;8.262;2022-12-07T18:30:18;30.13;;;9.90;;
17658;SDS011;8948;51.534;8.262;2022-12-07T18:35:19;18.57;;;9.87;;
17658;SDS011;8948;51.534;8.262;2022-12-07T18:40:19;19.83;;;9.47;;
17658;SDS011;8948;51.534;8.262;2022-12-07T18:45:20;20.73;;;10.07;;
17658;SDS011;8948;51.534;8.262;2022-12-07T18:50:20;18.60;;;8.50;;
17658;SDS011;8948;51.534;8.262;2022-12-07T18:55:21;15.43;;;8.50;;
17658;SDS011;8948;51.534;8.262;2022-12-07T19:00:21;17.37;;;8.50;;
17658;SDS011;8948;51.534;8.262;2022-12-07T19:05:23;20.40;;;8.63;;
17658;SDS011;8948;51.534;8.262;2022-12-07T19:10:26;12.83;;;7.87;;
17658;SDS011;8948;51.534;8.262;2022-12-07T19:15:26;18.93;;;7.80;;
17658;SDS011;8948;51.534;8.262;2022-12-07T19:20:27;17.47;;;8.70;;
17658;SDS011;8948;51.534;8.262;2022-12-07T19:25:28;20.63;;;10.13;;
17658;SDS011;8948;51.534;8.262;2022-12-07T19:30:28;24.63;;;11.30;;
17658;SDS011;8948;51.534;8.262;2022-12-07T19:35:29;21.87;;;12.10;;
17658;SDS011;8948;51.534;8.262;2022-12-07T19:40:29;25.43;;;13.40;;
17658;SDS011;8948;51.534;8.262;2022-12-07T19:45:30;30.77;;;14.17;;
17658;SDS011;8948;51.534;8.262;2022-12-07T19:50:33;21.93;;;12.33;;
17658;SDS011;8948;51.534;8.262;2022-12-07T19:55:37;26.53;;;12.60;;
17658;SDS011;8948;51.534;8.262;2022-12-07T20:00:39;21.53;;;13.30;;
17658;SDS011;8948;51.534;8.262;2022-12-07T20:05:40;25.00;;;13.13;;
17658;SDS011;8948;51.534;8.262;2022-12-07T20:10:40;26.57;;;14.17;;
17658;SDS011;8948;51.534;8.262;2022-12-07T20:15:41;34.23;;;17.23;;
17658;SDS011;8948;51.534;8.262;2022-12-07T20:20:51;28.87;;;16.13;;
17658;SDS011;8948;51.534;8.262;2022-12-07T20:26:00;27.50;;;15.13;;
17658;SDS011;8948;51.534;8.262;2022-12-07T20:31:03;29.20;;;14.57;;
17658;SDS011;8948;51.534;8.262;2022-12-07T20:36:04;25.53;;;14.70;;
17658;SDS011;8948;51.534;8.262;2022-12-07T20:41:06;27.30;;;14.40;;
17658;SDS011;8948;51.534;8.262;2022-12-07T20:46:28;26.17;;;15.67;;
17658;SDS011;8948;51.534;8.262;2022-12-07T20:51:28;33.20;;;17.30;;
17658;SDS011;8948;51.534;8.262;2022-12-07T20:56:30;26.50;;;16.87;;
17658;SDS011;8948;51.534;8.262;2022-12-07T21:01:31;37.33;;;19.73;;
17658;SDS011;8948;51.534;8.262;2022-12-07T21:06:32;36.90;;;18.57;;
17658;SDS011;8948;51.534;8.262;2022-12-07T21:11:32;30.77;;;18.23;;
17658;SDS011;8948;51.534;8.262;2022-12-07T21:16:33;32.07;;;16.77;;
17658;SDS011;8948;51.534;8.262;2022-12-07T21:21:34;32.37;;;16.37;;
17658;SDS011;8948;51.534;8.262;2022-12-07T21:26:35;32.33;;;17.97;;
17658;SDS011;8948;51.534;8.262;2022-12-07T21:31:36;28.07;;;17.70;;
17658;SDS011;8948;51.534;8.262;2022-12-07T21:36:37;31.93;;;17.70;;
17658;SDS011;8948;51.534;8.262;2022-12-07T21:41:37;27.07;;;17.40;;
17658;SDS011;8948;51.534;8.262;2022-12-07T21:46:38;33.40;;;16.83;;
17658;SDS011;8948;51.534;8.262;2022-12-07T21:51:40;28.70;;;16.50;;
17658;SDS011;8948;51.534;8.262;2022-12-07T21:56:42;29.60;;;17.30;;
17658;SDS011;8948;51.534;8.262;2022-12-07T22:01:44;35.80;;;18.83;;
17658;SDS011;8948;51.534;8.262;2022-12-07T22:06:46;32.23;;;20.30;;
17658;SDS011;8948;51.534;8.262;2022-12-07T22:11:47;40.70;;;21.10;;
17658;SDS011;8948;51.534;8.262;2022-12-07T22:16:48;40.00;;;22.33;;
17658;SDS011;8948;51.534;8.262;2022-12-07T22:21:49;43.40;;;19.70;;
17658;SDS011;8948;51.534;8.262;2022-12-07T22:26:49;39.83;;;22.37;;
17658;SDS011;8948;51.534;8.262;2022-12-07T22:31:50;39.13;;;21.10;;
17658;SDS011;8948;51.534;8.262;2022-12-07T22:36:50;41.10;;;20.97;;
17658;SDS011;8948;51.534;8.262;2022-12-07T22:41:51;38.63;;;22.13;;
17658;SDS011;8948;51.534;8.262;2022-12-07T22:46:52;39.40;;;21.93;;
17658;SDS011;8948;51.534;8.262;2022-12-07T22:51:52;36.97;;;20.47;;
17658;SDS011;8948;51.534;8.262;2022-12-07T22:56:53;33.33;;;19.70;;
17658;SDS011;8948;51.534;8.262;2022-12-07T23:01:53;29.77;;;18.40;;
17658;SDS011;8948;51.534;8.262;2022-12-07T23:06:56;30.83;;;18.43;;
17658;SDS011;8948;51.534;8.262;2022-12-07T23:11:57;32.50;;;18.87;;
17658;SDS011;8948;51.534;8.262;2022-12-07T23:17:16;38.10;;;20.20;;
17658;SDS011;8948;51.534;8.262;2022-12-07T23:22:17;38.67;;;21.17;;
17658;SDS011;8948;51.534;8.262;2022-12-07T23:27:17;41.87;;;21.57;;
17658;SDS011;8948;51.534;8.262;2022-12-07T23:32:18;39.70;;;20.33;;
17658;SDS011;8948;51.534;8.262;2022-12-07T23:37:18;39.03;;;20.80;;
17658;SDS011;8948;51.534;8.262;2022-12-07T23:42:19;38.27;;;21.13;;
17658;SDS011;8948;51.534;8.262;2022-12-07T23:47:19;35.70;;;19.70;;
17658;SDS011;8948;51.534;8.262;2022-12-07T23:52:20;42.30;;;20.33;;
17658;SDS011;8948;51.534;8.262;2022-12-07T23:57:20;39.07;;;19.17;;
